sensor_id;sensor_type;location;lat;lon;timestamp;pressure;altitude;pressure_sealevel;temperature;humidity
9249;BME280;4660;41.768;26.198;2023-05-29T00:01:58;62697.25;;;-145.20;100.00
9249;BME280;4660;41.768;26.198;2023-05-29T00:04:23;62697.25;;;-145.20;100.00
9249;BME280;4660;41.768;26.198;2023-05-29T00:06:49;62697.25;;;-145.20;100.00
9249;BME280;4660;41.768;26.198;2023-05-29T00:09:15;62697.25;;;-145.20;100.00
9249;BME280;4660;41.768;26.198;2023-05-29T00:11:41;62697.25;;;-145.20;100.00
9249;BME280;4660;41.768;26.198;2023-05-29T00:14:06;62697.25;;;-145.20;100.00
9249;BME280;4660;41.768;26.198;2023-05-29T00:16:32;62697.25;;;-145.20;100.00
9249;BME280;4660;41.768;26.198;2023-05-29T00:18:57;62697.25;;;-145.20;100.00
9249;BME280;4660;41.768;26.198;2023-05-29T00:21:22;62697.25;;;-145.20;100.00
9249;BME280;4660;41.768;26.198;2023-05-29T00:23:48;62697.25;;;-145.20;100.00
9249;BME280;4660;41.768;26.198;2023-05-29T00:26:13;62697.25;;;-145.20;100.00
9249;BME280;4660;41.768;26.198;2023-05-29T00:28:42;62697.25;;;-145.20;100.00
9249;BME280;4660;41.768;26.198;2023-05-29T00:31:07;62697.25;;;-145.20;100.00
9249;BME280;4660;41.768;26.198;2023-05-29T00:33:33;62697.25;;;-145.20;100.00
9249;BME280;4660;41.768;26.198;2023-05-29T00:35:58;62697.25;;;-145.20;100.00
9249;BME280;4660;41.768;26.198;2023-05-29T00:38:24;62697.25;;;-145.20;100.00
9249;BME280;4660;41.768;26.198;2023-05-29T00:40:49;62697.25;;;-145.20;100.00
9249;BME280;4660;41.768;26.198;2023-05-29T00:43:15;62697.25;;;-145.20;100.00
9249;BME280;4660;41.768;26.198;2023-05-29T00:45:40;62697.25;;;-145.20;100.00
9249;BME280;4660;41.768;26.198;2023-05-29T00:48:06;62697.25;;;-145.20;100.00
9249;BME280;4660;41.768;26.198;2023-05-29T00:50:33;62697.25;;;-145.20;100.00
9249;BME280;4660;41.768;26.198;2023-05-29T00:53:00;62697.25;;;-145.20;100.00
9249;BME280;4660;41.768;26.198;2023-05-29T00:55:28;62697.25;;;-145.20;100.00
9249;BME280;4660;41.768;26.198;2023-05-29T00:57:53;62697.25;;;-145.20;100.00
9249;BME280;4660;41.768;26.198;2023-05-29T01:00:19;62697.25;;;-145.20;100.00
9249;BME280;4660;41.768;26.198;2023-05-29T01:02:46;62697.25;;;-145.20;100.00
9249;BME280;4660;41.768;26.198;2023-05-29T01:05:12;62697.25;;;-145.20;100.00
9249;BME280;4660;41.768;26.198;2023-05-29T01:07:38;62697.25;;;-145.20;100.00
9249;BME280;4660;41.768;26.198;2023-05-29T01:10:05;62697.25;;;-145.20;100.00
9249;BME280;4660;41.768;26.198;2023-05-29T01:12:49;62697.25;;;-145.20;100.00
9249;BME280;4660;41.768;26.198;2023-05-29T01:15:36;62697.25;;;-145.20;100.00
9249;BME280;4660;41.768;26.198;2023-05-29T01:23:33;62697.25;;;-145.20;100.00
9249;BME280;4660;41.768;26.198;2023-05-29T01:29:07;62697.25;;;-145.20;100.00
9249;BME280;4660;41.768;26.198;2023-05-29T01:31:34;62697.25;;;-145.20;100.00
9249;BME280;4660;41.768;26.198;2023-05-29T01:34:00;62697.25;;;-145.20;100.00
9249;BME280;4660;41.768;26.198;2023-05-29T01:36:26;62697.25;;;-145.20;100.00
9249;BME280;4660;41.768;26.198;2023-05-29T01:38:55;62697.25;;;-145.20;100.00
9249;BME280;4660;41.768;26.198;2023-05-29T01:41:23;62697.25;;;-145.20;100.00
9249;BME280;4660;41.768;26.198;2023-05-29T01:43:49;62697.25;;;-145.20;100.00
9249;BME280;4660;41.768;26.198;2023-05-29T01:46:16;62697.25;;;-145.20;100.00
9249;BME280;4660;41.768;26.198;2023-05-29T01:48:42;62697.25;;;-145.20;100.00
9249;BME280;4660;41.768;26.198;2023-05-29T01:51:09;62697.25;;;-145.20;100.00
9249;BME280;4660;41.768;26.198;2023-05-29T01:53:36;62697.25;;;-145.20;100.00
9249;BME280;4660;41.768;26.198;2023-05-29T01:56:03;62697.25;;;-145.20;100.00
9249;BME280;4660;41.768;26.198;2023-05-29T01:58:29;62697.25;;;-145.20;100.00
9249;BME280;4660;41.768;26.198;2023-05-29T02:00:56;62697.25;;;-145.20;100.00
9249;BME280;4660;41.768;26.198;2023-05-29T02:03:21;62697.25;;;-145.20;100.00
9249;BME280;4660;41.768;26.198;2023-05-29T02:05:47;62697.25;;;-145.20;100.00
9249;BME280;4660;41.768;26.198;2023-05-29T02:08:12;62697.25;;;-145.20;100.00
9249;BME280;4660;41.768;26.198;2023-05-29T02:10:38;62697.25;;;-145.20;100.00
9249;BME280;4660;41.768;26.198;2023-05-29T02:13:03;62697.25;;;-145.20;100.00
9249;BME280;4660;41.768;26.198;2023-05-29T02:15:29;62697.25;;;-145.20;100.00
9249;BME280;4660;41.768;26.198;2023-05-29T02:17:54;62697.25;;;-145.20;100.00
9249;BME280;4660;41.768;26.198;2023-05-29T02:20:20;62697.25;;;-145.20;100.00
9249;BME280;4660;41.768;26.198;2023-05-29T02:22:45;62697.25;;;-145.20;100.00
9249;BME280;4660;41.768;26.198;2023-05-29T02:25:11;62697.25;;;-145.20;100.00
9249;BME280;4660;41.768;26.198;2023-05-29T02:27:36;62697.25;;;-145.20;100.00
9249;BME280;4660;41.768;26.198;2023-05-29T02:30:02;62697.25;;;-145.20;100.00
9249;BME280;4660;41.768;26.198;2023-05-29T02:32:27;62697.25;;;-145.20;100.00
9249;BME280;4660;41.768;26.198;2023-05-29T02:34:54;62697.25;;;-145.20;100.00
9249;BME280;4660;41.768;26.198;2023-05-29T02:37:20;62697.25;;;-145.20;100.00
9249;BME280;4660;41.768;26.198;2023-05-29T02:39:45;62697.25;;;-145.20;100.00
9249;BME280;4660;41.768;26.198;2023-05-29T02:42:11;62697.25;;;-145.20;100.00
9249;BME280;4660;41.768;26.198;2023-05-29T02:44:36;62697.25;;;-145.20;100.00
9249;BME280;4660;41.768;26.198;2023-05-29T02:47:01;62697.25;;;-145.20;100.00
9249;BME280;4660;41.768;26.198;2023-05-29T02:49:27;62697.25;;;-145.20;100.00
9249;BME280;4660;41.768;26.198;2023-05-29T02:51:52;62697.25;;;-145.20;100.00
9249;BME280;4660;41.768;26.198;2023-05-29T02:54:23;62697.25;;;-145.20;100.00
9249;BME280;4660;41.768;26.198;2023-05-29T02:56:49;62697.25;;;-145.20;100.00
9249;BME280;4660;41.768;26.198;2023-05-29T02:59:15;62697.25;;;-145.20;100.00
9249;BME280;4660;41.768;26.198;2023-05-29T03:01:41;62697.25;;;-145.20;100.00
9249;BME280;4660;41.768;26.198;2023-05-29T03:04:07;62697.25;;;-145.20;100.00
9249;BME280;4660;41.768;26.198;2023-05-29T03:06:34;62697.25;;;-145.20;100.00
9249;BME280;4660;41.768;26.198;2023-05-29T03:08:59;62697.25;;;-145.20;100.00
9249;BME280;4660;41.768;26.198;2023-05-29T03:11:25;62697.25;;;-145.20;100.00
9249;BME280;4660;41.768;26.198;2023-05-29T03:13:50;62697.25;;;-145.20;100.00
9249;BME280;4660;41.768;26.198;2023-05-29T03:16:16;62697.25;;;-145.20;100.00
9249;BME280;4660;41.768;26.198;2023-05-29T03:18:41;62697.25;;;-145.20;100.00
9249;BME280;4660;41.768;26.198;2023-05-29T03:21:07;62697.25;;;-145.20;100.00
9249;BME280;4660;41.768;26.198;2023-05-29T03:23:33;62697.25;;;-145.20;100.00
9249;BME280;4660;41.768;26.198;2023-05-29T03:25:58;62697.25;;;-145.20;100.00
9249;BME280;4660;41.768;26.198;2023-05-29T03:28:23;62697.25;;;-145.20;100.00
9249;BME280;4660;41.768;26.198;2023-05-29T03:30:49;62697.25;;;-145.20;100.00
9249;BME280;4660;41.768;26.198;2023-05-29T03:33:15;62697.25;;;-145.20;100.00
9249;BME280;4660;41.768;26.198;2023-05-29T03:35:40;62697.25;;;-145.20;100.00
9249;BME280;4660;41.768;26.198;2023-05-29T03:38:06;62697.25;;;-145.20;100.00
9249;BME280;4660;41.768;26.198;2023-05-29T03:40:31;62697.25;;;-145.20;100.00
9249;BME280;4660;41.768;26.198;2023-05-29T03:42:56;62697.25;;;-145.20;100.00
9249;BME280;4660;41.768;26.198;2023-05-29T03:45:22;62697.25;;;-145.20;100.00
9249;BME280;4660;41.768;26.198;2023-05-29T03:47:47;62697.25;;;-145.20;100.00
9249;BME280;4660;41.768;26.198;2023-05-29T03:50:13;62697.25;;;-145.20;100.00
9249;BME280;4660;41.768;26.198;2023-05-29T03:52:41;62697.25;;;-145.20;100.00
9249;BME280;4660;41.768;26.198;2023-05-29T03:55:09;62697.25;;;-145.20;100.00
9249;BME280;4660;41.768;26.198;2023-05-29T03:57:41;62697.25;;;-145.20;100.00
9249;BME280;4660;41.768;26.198;2023-05-29T04:00:10;62697.25;;;-145.20;100.00
9249;BME280;4660;41.768;26.198;2023-05-29T04:02:37;62697.25;;;-145.20;100.00
9249;BME280;4660;41.768;26.198;2023-05-29T04:05:05;62697.25;;;-145.20;100.00
9249;BME280;4660;41.768;26.198;2023-05-29T04:07:32;62697.25;;;-145.20;100.00
9249;BME280;4660;41.768;26.198;2023-05-29T04:09:58;62697.25;;;-145.20;100.00
9249;BME280;4660;41.768;26.198;2023-05-29T04:12:23;62697.25;;;-145.20;100.00
9249;BME280;4660;41.768;26.198;2023-05-29T04:14:49;62697.25;;;-145.20;100.00
9249;BME280;4660;41.768;26.198;2023-05-29T04:17:14;62697.25;;;-145.20;100.00
9249;BME280;4660;41.768;26.198;2023-05-29T04:19:40;62697.25;;;-145.20;100.00
9249;BME280;4660;41.768;26.198;2023-05-29T04:22:05;62697.25;;;-145.20;100.00
9249;BME280;4660;41.768;26.198;2023-05-29T04:24:30;62697.25;;;-145.20;100.00
9249;BME280;4660;41.768;26.198;2023-05-29T04:26:57;62697.25;;;-145.20;100.00
9249;BME280;4660;41.768;26.198;2023-05-29T04:29:26;62697.25;;;-145.20;100.00
9249;BME280;4660;41.768;26.198;2023-05-29T04:31:51;62697.25;;;-145.20;100.00
9249;BME280;4660;41.768;26.198;2023-05-29T04:34:17;62697.25;;;-145.20;100.00
9249;BME280;4660;41.768;26.198;2023-05-29T04:36:42;62697.25;;;-145.20;100.00
9249;BME280;4660;41.768;26.198;2023-05-29T04:39:09;62697.25;;;-145.20;100.00
9249;BME280;4660;41.768;26.198;2023-05-29T04:41:34;62697.25;;;-145.20;100.00
9249;BME280;4660;41.768;26.198;2023-05-29T04:44:00;62697.25;;;-145.20;100.00
9249;BME280;4660;41.768;26.198;2023-05-29T04:46:26;62697.25;;;-145.20;100.00
9249;BME280;4660;41.768;26.198;2023-05-29T04:48:52;62697.25;;;-145.20;100.00
9249;BME280;4660;41.768;26.198;2023-05-29T04:51:21;62697.25;;;-145.20;100.00
9249;BME280;4660;41.768;26.198;2023-05-29T04:53:47;62697.25;;;-145.20;100.00
9249;BME280;4660;41.768;26.198;2023-05-29T04:56:14;62697.25;;;-145.20;100.00
9249;BME280;4660;41.768;26.198;2023-05-29T04:58:40;62697.25;;;-145.20;100.00
9249;BME280;4660;41.768;26.198;2023-05-29T05:01:06;62697.25;;;-145.20;100.00
9249;BME280;4660;41.768;26.198;2023-05-29T05:03:33;62697.25;;;-145.20;100.00
9249;BME280;4660;41.768;26.198;2023-05-29T05:06:03;62697.25;;;-145.20;100.00
9249;BME280;4660;41.768;26.198;2023-05-29T05:08:29;62697.25;;;-145.20;100.00
9249;BME280;4660;41.768;26.198;2023-05-29T05:10:56;62697.25;;;-145.20;100.00
9249;BME280;4660;41.768;26.198;2023-05-29T05:13:21;62697.25;;;-145.20;100.00
9249;BME280;4660;41.768;26.198;2023-05-29T05:15:47;62697.25;;;-145.20;100.00
9249;BME280;4660;41.768;26.198;2023-05-29T05:18:12;62697.25;;;-145.20;100.00
9249;BME280;4660;41.768;26.198;2023-05-29T05:20:38;62697.25;;;-145.20;100.00
9249;BME280;4660;41.768;26.198;2023-05-29T05:23:03;62697.25;;;-145.20;100.00
9249;BME280;4660;41.768;26.198;2023-05-29T05:25:28;62697.25;;;-145.20;100.00
9249;BME280;4660;41.768;26.198;2023-05-29T05:27:54;62697.25;;;-145.20;100.00
9249;BME280;4660;41.768;26.198;2023-05-29T05:30:19;62697.25;;;-145.20;100.00
9249;BME280;4660;41.768;26.198;2023-05-29T05:32:45;62697.25;;;-145.20;100.00
9249;BME280;4660;41.768;26.198;2023-05-29T05:35:10;62697.25;;;-145.20;100.00
9249;BME280;4660;41.768;26.198;2023-05-29T05:37:37;62697.25;;;-145.20;100.00
9249;BME280;4660;41.768;26.198;2023-05-29T05:40:03;62697.25;;;-145.20;100.00
9249;BME280;4660;41.768;26.198;2023-05-29T05:42:32;62697.25;;;-145.20;100.00
9249;BME280;4660;41.768;26.198;2023-05-29T05:44:57;62697.25;;;-145.20;100.00
9249;BME280;4660;41.768;26.198;2023-05-29T05:47:23;62697.25;;;-145.20;100.00
9249;BME280;4660;41.768;26.198;2023-05-29T05:49:48;62697.25;;;-145.20;100.00
9249;BME280;4660;41.768;26.198;2023-05-29T05:52:16;62697.25;;;-145.20;100.00
9249;BME280;4660;41.768;26.198;2023-05-29T05:54:41;62697.25;;;-145.20;100.00
9249;BME280;4660;41.768;26.198;2023-05-29T05:57:08;62697.25;;;-145.20;100.00
9249;BME280;4660;41.768;26.198;2023-05-29T05:59:33;62697.25;;;-145.20;100.00
9249;BME280;4660;41.768;26.198;2023-05-29T06:01:59;62697.25;;;-145.20;100.00
9249;BME280;4660;41.768;26.198;2023-05-29T06:04:24;62697.25;;;-145.20;100.00
9249;BME280;4660;41.768;26.198;2023-05-29T06:06:49;62697.25;;;-145.20;100.00
9249;BME280;4660;41.768;26.198;2023-05-29T06:09:15;62697.25;;;-145.20;100.00
9249;BME280;4660;41.768;26.198;2023-05-29T06:11:40;62697.25;;;-145.20;100.00
9249;BME280;4660;41.768;26.198;2023-05-29T06:14:06;62697.25;;;-145.20;100.00
9249;BME280;4660;41.768;26.198;2023-05-29T06:16:31;62697.25;;;-145.20;100.00
9249;BME280;4660;41.768;26.198;2023-05-29T06:18:57;62697.25;;;-145.20;100.00
9249;BME280;4660;41.768;26.198;2023-05-29T06:21:22;62697.25;;;-145.20;100.00
9249;BME280;4660;41.768;26.198;2023-05-29T06:23:48;62697.25;;;-145.20;100.00
9249;BME280;4660;41.768;26.198;2023-05-29T06:26:14;62697.25;;;-145.20;100.00
9249;BME280;4660;41.768;26.198;2023-05-29T06:28:41;62697.25;;;-145.20;100.00
9249;BME280;4660;41.768;26.198;2023-05-29T06:31:10;62697.25;;;-145.20;100.00
9249;BME280;4660;41.768;26.198;2023-05-29T06:33:36;62697.25;;;-145.20;100.00
9249;BME280;4660;41.768;26.198;2023-05-29T06:36:02;62697.25;;;-145.20;100.00
9249;BME280;4660;41.768;26.198;2023-05-29T06:38:28;62697.25;;;-145.20;100.00
9249;BME280;4660;41.768;26.198;2023-05-29T06:40:54;62697.25;;;-145.20;100.00
9249;BME280;4660;41.768;26.198;2023-05-29T06:43:19;62697.25;;;-145.20;100.00
9249;BME280;4660;41.768;26.198;2023-05-29T06:45:45;62697.25;;;-145.20;100.00
9249;BME280;4660;41.768;26.198;2023-05-29T06:48:10;62697.25;;;-145.20;100.00
9249;BME280;4660;41.768;26.198;2023-05-29T06:50:36;62697.25;;;-145.20;100.00
9249;BME280;4660;41.768;26.198;2023-05-29T06:53:01;62697.25;;;-145.20;100.00
9249;BME280;4660;41.768;26.198;2023-05-29T06:55:27;62697.25;;;-145.20;100.00
9249;BME280;4660;41.768;26.198;2023-05-29T06:57:52;62697.25;;;-145.20;100.00
9249;BME280;4660;41.768;26.198;2023-05-29T07:00:18;62697.25;;;-145.20;100.00
9249;BME280;4660;41.768;26.198;2023-05-29T07:03:21;100544.28;;;21.64;100.00
9249;BME280;4660;41.768;26.198;2023-05-29T07:05:48;100544.19;;;21.39;100.00
9249;BME280;4660;41.768;26.198;2023-05-29T07:08:13;100522.97;;;21.28;100.00
9249;BME280;4660;41.768;26.198;2023-05-29T07:11:07;100537.31;;;21.16;100.00
9249;BME280;4660;41.768;26.198;2023-05-29T07:13:46;100464.41;;;20.64;100.00
9249;BME280;4660;41.768;26.198;2023-05-29T07:16:15;100520.09;;;21.03;100.00
9249;BME280;4660;41.768;26.198;2023-05-29T07:18:44;100531.44;;;21.06;100.00
9249;BME280;4660;41.768;26.198;2023-05-29T07:21:16;100547.78;;;21.26;100.00
9249;BME280;4660;41.768;26.198;2023-05-29T07:23:56;100509.75;;;21.05;100.00
9249;BME280;4660;41.768;26.198;2023-05-29T07:26:23;100465.69;;;20.61;100.00
9249;BME280;4660;41.768;26.198;2023-05-29T07:28:51;100554.38;;;20.99;100.00
9249;BME280;4660;41.768;26.198;2023-05-29T07:31:38;100567.22;;;20.98;100.00
9249;BME280;4660;41.768;26.198;2023-05-29T07:34:06;100500.16;;;20.43;100.00
9249;BME280;4660;41.768;26.198;2023-05-29T07:36:33;100538.88;;;20.73;100.00
9249;BME280;4660;41.768;26.198;2023-05-29T07:39:01;100561.16;;;20.76;100.00
9249;BME280;4660;41.768;26.198;2023-05-29T07:41:30;100557.34;;;20.71;100.00
9249;BME280;4660;41.768;26.198;2023-05-29T07:44:05;100556.53;;;20.64;100.00
9249;BME280;4660;41.768;26.198;2023-05-29T07:46:31;100547.91;;;20.67;100.00
9249;BME280;4660;41.768;26.198;2023-05-29T07:48:56;100531.09;;;20.63;100.00
9249;BME280;4660;41.768;26.198;2023-05-29T07:51:24;100553.53;;;21.05;100.00
9249;BME280;4660;41.768;26.198;2023-05-29T07:56:39;100558.19;;;20.78;100.00
9249;BME280;4660;41.768;26.198;2023-05-29T08:01:43;100501.00;;;20.10;100.00
9249;BME280;4660;41.768;26.198;2023-05-29T08:04:11;100525.22;;;20.46;100.00
9249;BME280;4660;41.768;26.198;2023-05-29T08:06:37;100546.88;;;20.54;100.00
9249;BME280;4660;41.768;26.198;2023-05-29T08:09:03;100469.91;;;19.98;100.00
9249;BME280;4660;41.768;26.198;2023-05-29T08:11:30;100524.34;;;20.39;100.00
9249;BME280;4660;41.768;26.198;2023-05-29T08:13:57;100432.09;;;20.15;100.00
9249;BME280;4660;41.768;26.198;2023-05-29T08:16:24;100478.53;;;20.68;100.00
9249;BME280;4660;41.768;26.198;2023-05-29T08:18:59;100441.19;;;20.93;100.00
9249;BME280;4660;41.768;26.198;2023-05-29T08:21:25;100549.00;;;21.95;100.00
9249;BME280;4660;41.768;26.198;2023-05-29T08:23:51;100535.91;;;21.97;100.00
9249;BME280;4660;41.768;26.198;2023-05-29T08:26:16;100533.06;;;22.17;100.00
9249;BME280;4660;41.768;26.198;2023-05-29T08:28:42;100545.88;;;22.48;100.00
9249;BME280;4660;41.768;26.198;2023-05-29T08:31:09;100540.53;;;22.78;100.00
9249;BME280;4660;41.768;26.198;2023-05-29T08:33:34;100544.75;;;22.80;100.00
9249;BME280;4660;41.768;26.198;2023-05-29T08:36:02;100552.16;;;22.80;100.00
9249;BME280;4660;41.768;26.198;2023-05-29T08:38:27;100533.13;;;22.60;100.00
9249;BME280;4660;41.768;26.198;2023-05-29T08:40:54;100525.47;;;22.44;100.00
9249;BME280;4660;41.768;26.198;2023-05-29T08:43:24;100532.66;;;22.63;100.00
9249;BME280;4660;41.768;26.198;2023-05-29T08:45:54;100542.66;;;22.58;100.00
9249;BME280;4660;41.768;26.198;2023-05-29T08:48:24;100517.84;;;22.46;100.00
9249;BME280;4660;41.768;26.198;2023-05-29T08:50:55;100523.06;;;22.54;100.00
9249;BME280;4660;41.768;26.198;2023-05-29T08:53:22;100518.38;;;22.36;100.00
9249;BME280;4660;41.768;26.198;2023-05-29T08:55:53;100520.53;;;22.28;100.00
9249;BME280;4660;41.768;26.198;2023-05-29T08:58:19;100525.81;;;21.91;100.00
9249;BME280;4660;41.768;26.198;2023-05-29T09:00:50;100523.06;;;21.59;100.00
9249;BME280;4660;41.768;26.198;2023-05-29T09:03:19;100543.28;;;21.58;100.00
9249;BME280;4660;41.768;26.198;2023-05-29T09:05:46;100547.56;;;21.41;100.00
9249;BME280;4660;41.768;26.198;2023-05-29T09:08:11;100551.97;;;21.42;100.00
9249;BME280;4660;41.768;26.198;2023-05-29T09:10:44;100535.59;;;21.29;100.00
9249;BME280;4660;41.768;26.198;2023-05-29T09:13:13;100537.31;;;21.10;100.00
9249;BME280;4660;41.768;26.198;2023-05-29T09:15:40;100527.03;;;20.99;100.00
9249;BME280;4660;41.768;26.198;2023-05-29T09:18:08;100529.47;;;21.33;100.00
9249;BME280;4660;41.768;26.198;2023-05-29T09:20:35;100530.63;;;21.57;100.00
9249;BME280;4660;41.768;26.198;2023-05-29T09:23:06;100526.53;;;21.28;100.00
9249;BME280;4660;41.768;26.198;2023-05-29T09:25:35;100535.84;;;21.07;100.00
9249;BME280;4660;41.768;26.198;2023-05-29T09:28:01;100541.19;;;20.69;100.00
9249;BME280;4660;41.768;26.198;2023-05-29T09:33:01;100530.22;;;20.16;100.00
9249;BME280;4660;41.768;26.198;2023-05-29T09:35:36;100536.53;;;20.10;100.00
9249;BME280;4660;41.768;26.198;2023-05-29T09:38:02;100527.88;;;19.93;100.00
9249;BME280;4660;41.768;26.198;2023-05-29T09:40:40;100523.25;;;19.87;100.00
9249;BME280;4660;41.768;26.198;2023-05-29T09:43:10;100526.59;;;19.89;100.00
9249;BME280;4660;41.768;26.198;2023-05-29T09:45:49;100529.50;;;19.74;100.00
9249;BME280;4660;41.768;26.198;2023-05-29T09:50:42;100518.41;;;19.83;100.00
9249;BME280;4660;41.768;26.198;2023-05-29T09:53:31;100502.63;;;19.65;100.00
9249;BME280;4660;41.768;26.198;2023-05-29T09:55:57;100509.75;;;19.66;100.00
9249;BME280;4660;41.768;26.198;2023-05-29T09:58:24;100509.38;;;19.89;100.00
9249;BME280;4660;41.768;26.198;2023-05-29T10:00:51;100508.91;;;19.59;100.00
9249;BME280;4660;41.768;26.198;2023-05-29T10:03:18;100488.25;;;19.49;100.00
9249;BME280;4660;41.768;26.198;2023-05-29T10:05:54;100506.69;;;19.41;100.00
9249;BME280;4660;41.768;26.198;2023-05-29T10:08:23;100525.69;;;19.21;100.00
9249;BME280;4660;41.768;26.198;2023-05-29T10:10:56;100519.28;;;18.94;100.00
9249;BME280;4660;41.768;26.198;2023-05-29T10:13:27;100479.09;;;18.47;100.00
9249;BME280;4660;41.768;26.198;2023-05-29T10:15:58;100522.13;;;18.79;100.00
9249;BME280;4660;41.768;26.198;2023-05-29T10:18:27;100519.88;;;18.89;100.00
9249;BME280;4660;41.768;26.198;2023-05-29T10:20:55;100496.53;;;18.80;100.00
9249;BME280;4660;41.768;26.198;2023-05-29T10:23:25;100515.72;;;18.93;100.00
9249;BME280;4660;41.768;26.198;2023-05-29T10:25:53;100517.81;;;18.98;100.00
9249;BME280;4660;41.768;26.198;2023-05-29T10:28:21;100515.47;;;18.88;100.00
9249;BME280;4660;41.768;26.198;2023-05-29T10:31:01;100521.00;;;19.02;100.00
9249;BME280;4660;41.768;26.198;2023-05-29T10:36:16;100519.09;;;19.02;100.00
9249;BME280;4660;41.768;26.198;2023-05-29T10:38:45;100489.00;;;18.82;100.00
9249;BME280;4660;41.768;26.198;2023-05-29T10:43:57;100519.63;;;18.84;100.00
9249;BME280;4660;41.768;26.198;2023-05-29T10:49:21;100522.38;;;18.91;100.00
9249;BME280;4660;41.768;26.198;2023-05-29T10:51:47;100513.13;;;18.85;100.00
9249;BME280;4660;41.768;26.198;2023-05-29T10:54:21;100511.81;;;18.75;100.00
9249;BME280;4660;41.768;26.198;2023-05-29T10:56:58;100537.03;;;18.83;100.00
9249;BME280;4660;41.768;26.198;2023-05-29T10:59:27;100462.69;;;18.12;100.00
9249;BME280;4660;41.768;26.198;2023-05-29T11:01:54;100536.19;;;18.83;100.00
9249;BME280;4660;41.768;26.198;2023-05-29T11:06:53;100524.09;;;18.98;100.00
9249;BME280;4660;41.768;26.198;2023-05-29T11:09:38;100525.72;;;18.86;100.00
9249;BME280;4660;41.768;26.198;2023-05-29T11:12:24;100527.06;;;18.69;100.00
9249;BME280;4660;41.768;26.198;2023-05-29T11:15:10;100536.72;;;18.50;100.00
9249;BME280;4660;41.768;26.198;2023-05-29T11:20:14;100542.75;;;18.18;100.00
9249;BME280;4660;41.768;26.198;2023-05-29T11:25:27;100535.56;;;18.31;100.00
9249;BME280;4660;41.768;26.198;2023-05-29T11:27:53;100538.13;;;18.39;100.00
9249;BME280;4660;41.768;26.198;2023-05-29T11:30:19;100546.41;;;18.53;100.00
9249;BME280;4660;41.768;26.198;2023-05-29T11:32:47;100525.75;;;18.65;100.00
9249;BME280;4660;41.768;26.198;2023-05-29T11:35:18;100544.59;;;18.60;100.00
9249;BME280;4660;41.768;26.198;2023-05-29T11:37:46;100545.84;;;18.64;100.00
9249;BME280;4660;41.768;26.198;2023-05-29T11:40:35;100539.28;;;18.73;100.00
9249;BME280;4660;41.768;26.198;2023-05-29T11:43:01;100548.91;;;19.04;100.00
9249;BME280;4660;41.768;26.198;2023-05-29T11:45:26;100514.78;;;19.21;100.00
9249;BME280;4660;41.768;26.198;2023-05-29T11:47:56;100546.25;;;19.17;100.00
9249;BME280;4660;41.768;26.198;2023-05-29T11:50:24;100532.31;;;19.05;100.00
9249;BME280;4660;41.768;26.198;2023-05-29T11:52:50;100513.25;;;19.05;100.00
9249;BME280;4660;41.768;26.198;2023-05-29T11:55:20;100529.28;;;19.28;100.00
9249;BME280;4660;41.768;26.198;2023-05-29T11:57:50;100521.69;;;19.17;100.00
9249;BME280;4660;41.768;26.198;2023-05-29T12:00:19;100498.63;;;19.19;100.00
9249;BME280;4660;41.768;26.198;2023-05-29T12:02:46;100502.22;;;19.27;100.00
9249;BME280;4660;41.768;26.198;2023-05-29T12:05:16;100517.63;;;19.47;100.00
9249;BME280;4660;41.768;26.198;2023-05-29T12:07:47;100510.38;;;19.61;100.00
9249;BME280;4660;41.768;26.198;2023-05-29T12:10:34;100501.38;;;19.74;100.00
9249;BME280;4660;41.768;26.198;2023-05-29T12:13:00;100500.91;;;19.64;100.00
9249;BME280;4660;41.768;26.198;2023-05-29T12:15:30;100500.00;;;19.50;100.00
9249;BME280;4660;41.768;26.198;2023-05-29T12:17:55;100523.38;;;19.59;100.00
9249;BME280;4660;41.768;26.198;2023-05-29T12:20:23;100515.19;;;19.59;100.00
9249;BME280;4660;41.768;26.198;2023-05-29T12:22:52;100516.91;;;19.67;100.00
9249;BME280;4660;41.768;26.198;2023-05-29T12:25:20;100516.66;;;19.62;100.00
9249;BME280;4660;41.768;26.198;2023-05-29T12:27:46;100523.41;;;19.66;100.00
9249;BME280;4660;41.768;26.198;2023-05-29T12:30:22;100476.97;;;19.59;100.00
9249;BME280;4660;41.768;26.198;2023-05-29T12:32:51;100512.28;;;19.74;100.00
9249;BME280;4660;41.768;26.198;2023-05-29T12:35:23;100503.69;;;19.77;100.00
9249;BME280;4660;41.768;26.198;2023-05-29T12:37:58;100494.91;;;19.88;100.00
9249;BME280;4660;41.768;26.198;2023-05-29T12:40:26;100485.03;;;19.87;100.00
9249;BME280;4660;41.768;26.198;2023-05-29T12:45:29;100413.19;;;19.67;100.00
9249;BME280;4660;41.768;26.198;2023-05-29T12:48:17;100368.38;;;19.41;100.00
9249;BME280;4660;41.768;26.198;2023-05-29T12:51:04;100347.56;;;19.20;100.00
9249;BME280;4660;41.768;26.198;2023-05-29T12:53:33;100503.09;;;20.28;100.00
9249;BME280;4660;41.768;26.198;2023-05-29T12:56:22;100478.31;;;20.16;100.00
9249;BME280;4660;41.768;26.198;2023-05-29T12:59:02;100502.69;;;20.04;100.00
9249;BME280;4660;41.768;26.198;2023-05-29T13:01:29;100491.97;;;19.96;100.00
9249;BME280;4660;41.768;26.198;2023-05-29T13:03:55;100478.72;;;20.06;100.00
9249;BME280;4660;41.768;26.198;2023-05-29T13:06:41;100469.06;;;20.04;100.00
9249;BME280;4660;41.768;26.198;2023-05-29T13:09:07;100466.94;;;19.93;100.00
9249;BME280;4660;41.768;26.198;2023-05-29T13:11:35;100462.34;;;20.13;100.00
9249;BME280;4660;41.768;26.198;2023-05-29T13:14:00;100462.34;;;20.20;100.00
9249;BME280;4660;41.768;26.198;2023-05-29T13:16:26;100474.97;;;20.01;100.00
9249;BME280;4660;41.768;26.198;2023-05-29T13:18:53;100478.31;;;20.16;100.00
9249;BME280;4660;41.768;26.198;2023-05-29T13:21:19;100485.88;;;20.21;100.00
9249;BME280;4660;41.768;26.198;2023-05-29T13:23:46;100477.47;;;20.02;100.00
9249;BME280;4660;41.768;26.198;2023-05-29T13:26:11;100477.88;;;19.99;100.00
9249;BME280;4660;41.768;26.198;2023-05-29T13:28:41;100453.97;;;20.08;100.00